Ship Status Report: callsign BAREU51

sailwx.info

Track history (hours):
 
Tides and Currents Weather Stations Pressure Air Temp Water Temp Dewpoint Dewpoint Depression Visibility Wind Speed Wind Dir Waves Ship Positions

Callsign BAREU51 (name unknown)

Last reported at 2017-Aug-18 23:00 UTC. Time now 2017-Aug-18 23:48 UTC.
Position N 39°12' E 012°42'.

Barometer 1015.6 mb
Air temperature 26.4 ° C

Date/timePositionNaut miles runAvg speedWind from/ knotsBaromVisibWave heightAir tempDewpointWater temp
2017-Aug-18 23:00N 39°12' E 012°42'2020.3 1015.6 26.4
2017-Aug-18 22:00N 38°54' E 012°54'2020.3 1015.9 27.1
2017-Aug-18 21:00N 38°36' E 013°06'2827.8 1016.1 27.1
2017-Aug-18 20:00N 38°12' E 013°24'6 1.2 1016.2 27.0
2017-Aug-18 15:00N 38°06' E 013°24'1918.6 1016.0 30.1
2017-Aug-18 14:00N 38°24' E 013°18'2322.9 1015.9 29.4
2017-Aug-18 13:00N 38°42' E 013°00'2625.8 1016.6 29.4
2017-Aug-18 12:00N 39°06' E 012°48'2020.3 1017.0 28.9
2017-Aug-18 11:00N 39°24' E 012°36'2827.7 1017.3 28.5
2017-Aug-18 10:00N 39°48' E 012°18'2020.2 1017.6 28.4
2017-Aug-18 09:00N 40°06' E 012°06'2020.2 1017.7 27.5
2017-Aug-18 08:00N 40°24' E 011°54'2625.7 1017.6 26.7
2017-Aug-18 07:00N 40°48' E 011°42'2322.6 1017.0 26.2
2017-Aug-18 06:00N 41°06' E 011°24'2020.1 1016.4 25.8
2017-Aug-18 05:00N 41°24' E 011°12'2625.6 1016.0 24.7
2017-Aug-18 04:00N 41°48' E 011°00'2222.4 1015.7 24.6
2017-Aug-18 03:00N 42°06' E 010°42'2020.1 1015.6 25.5
2017-Aug-18 02:00N 42°24' E 010°30'2525.2 1015.6 25.1
2017-Aug-18 01:00N 42°42' E 010°06'1918.5 1015.6 26.1
2017-Aug-18 00:00N 43°00' E 010°00'2625.5 1016.6 24.6
2017-Aug-17 23:00N 43°24' E 009°48'2222.2 1016.6 24.6
2017-Aug-17 22:00N 43°42' E 009°30'2222.2 1016.5 24.5
2017-Aug-17 21:00N 44°00' E 009°12'2020.0 1016.4 25.6
2017-Aug-17 20:00N 44°18' E 009°00'6 1.2 1016.3 27.0
2017-Aug-17 15:00N 44°24' E 009°00'2019.9 1016.2 28.4
2017-Aug-17 14:00N 44°06' E 009°12'2727.3 1016.4 27.1
2017-Aug-17 13:00N 43°42' E 009°30'2020.0 1016.4 27.1
2017-Aug-17 12:00N 43°24' E 009°42'2222.3 1016.6 26.3
2017-Aug-17 11:00N 43°06' E 010°00'2424.0 1016.5 26.3
2017-Aug-17 10:00N 42°42' E 010°00'2121.4 1016.3 26.2
2017-Aug-17 09:00N 42°30' E 010°24'2222.4 1016.5 27.7
2017-Aug-17 08:00N 42°12' E 010°42'2625.6 1016.3 26.8
2017-Aug-17 07:00N 41°48' E 010°54'2222.5 1015.7 25.7
2017-Aug-17 06:00N 41°30' E 011°12'2020.1 1015.1 25.4
2017-Aug-17 05:00N 41°12' E 011°24'2625.7 1015.0 26.2
2017-Aug-17 04:00N 40°48' E 011°36'2020.2 1014.7 25.8
2017-Aug-17 03:00N 40°30' E 011°48'2020.2 1015.0 25.4
2017-Aug-17 02:00N 40°12' E 012°00'2827.7 1015.5 25.6
2017-Aug-17 01:00N 39°48' E 012°18'2020.2 1015.9 26.5
2017-Aug-17 00:00N 39°30' E 012°30'2020.3 1016.0 26.3
2017-Aug-16 23:00N 39°12' E 012°42'2625.7 1016.4 26.4
2017-Aug-16 22:00N 38°48' E 012°54'2322.8 1016.6 26.8
2017-Aug-16 21:00N 38°30' E 013°12'2020.3 1016.6 27.0
2017-Aug-16 20:00N 38°12' E 013°24'6 6.0 1016.9 26.8
2017-Aug-16 19:00N 38°06' E 013°24'0 0.0 1017.3 26.8
2017-Aug-16 00:00N 38°06' E 013°24'0 0.0 1018.2 24.4
2017-Aug-15 20:00N 38°06' E 013°24'0 0.0 1019.1 25.7
2017-Aug-15 15:00N 38°06' E 013°24'2020.3 1019.1 29.4
2017-Aug-15 14:00N 38°24' E 013°12'2625.8 1019.2 28.7
2017-Aug-15 13:00N 38°48' E 013°00'2322.8 1019.9 28.9
2017-Aug-15 12:00N 39°06' E 012°42'2625.7 1020.4 28.4
2017-Aug-15 11:00N 39°30' E 012°30'2020.2 1020.8 28.4
2017-Aug-15 10:00N 39°48' E 012°18'2020.2 1020.6 27.3
2017-Aug-15 09:00N 40°06' E 012°06'2827.6 1020.4 26.9
2017-Aug-15 08:00N 40°30' E 011°48'2020.2 1020.7 26.4
2017-Aug-15 07:00N 40°48' E 011°36'2625.7 1020.4 26.1
2017-Aug-15 06:00N 41°12' E 011°24'2020.1 1020.5 24.8
2017-Aug-15 05:00N 41°30' E 011°12'2222.5 1019.6 22.7
2017-Aug-15 04:00N 41°48' E 010°54'2625.6 1019.3 23.5
2017-Aug-15 03:00N 42°12' E 010°42'2222.4 1019.2 25.3
2017-Aug-15 02:00N 42°30' E 010°24'2121.4 1019.3 25.3
2017-Aug-15 01:00N 42°42' E 010°00'2424.0 1019.7 23.8
2017-Aug-15 00:00N 43°06' E 010°00'2222.3 1019.6 23.8
2017-Aug-14 23:00N 43°24' E 009°42'2727.3 1019.6 23.8
2017-Aug-14 22:00N 43°48' E 009°24'2020.0 1019.7 23.4
2017-Aug-14 21:00N 44°06' E 009°12'2222.1 1019.8 24.1
2017-Aug-14 20:00N 44°24' E 008°54'0 0.0 1019.9 25.0
2017-Aug-14 17:00N 44°24' E 008°54'1010.5 1019.3 27.5
2017-Aug-14 16:00N 44°18' E 009°06'2625.5 1018.6 25.6
2017-Aug-14 15:00N 43°54' E 009°18'2222.2 1018.8 26.2
2017-Aug-14 14:00N 43°36' E 009°36'2222.2 1019.1 25.9
2017-Aug-14 13:00N 43°18' E 009°54'1918.5 1019.0 26.0
2017-Aug-14 12:00N 43°00' E 010°00'2625.6 1018.9 26.6
2017-Aug-14 11:00N 42°36' E 010°12'1817.9 1019.4 27.2
2017-Aug-14 10:00N 42°24' E 010°30'2727.5 1019.4 26.9
2017-Aug-14 09:00N 42°00' E 010°48'2020.1 1019.3 26.4
2017-Aug-14 08:00N 41°42' E 011°00'2020.1 1018.4 24.9
2017-Aug-14 07:00N 41°24' E 011°12'2827.6 1017.8 25.1
2017-Aug-14 06:00N 41°00' E 011°30'2020.2 1017.2 25.0
2017-Aug-14 05:00N 40°42' E 011°42'2020.2 1016.7 24.7
2017-Aug-14 04:00N 40°24' E 011°54'2625.7 1016.7 24.9
2017-Aug-14 03:00N 40°00' E 012°06'2322.7 1016.9 25.3
2017-Aug-14 02:00N 39°42' E 012°24'2020.2 1017.0 25.3
2017-Aug-14 01:00N 39°24' E 012°36'2625.7 1017.0 25.5
2017-Aug-14 00:00N 39°00' E 012°48'2020.3 1017.0 25.6
2017-Aug-13 23:00N 38°42' E 013°00'2322.9 1017.1 25.1
2017-Aug-13 22:00N 38°24' E 013°18'19 9.3 1017.6 25.2
2017-Aug-13 20:00N 38°06' E 013°24'6 2.0 1017.9 25.5
2017-Aug-13 17:00N 38°12' E 013°24'2827.8 1016.9 26.9
2017-Aug-13 16:00N 38°36' E 013°06'2020.3 1017.1 27.9
2017-Aug-13 15:00N 38°54' E 012°54'2020.3 1017.5 28.9
2017-Aug-13 14:00N 39°12' E 012°42'2625.7 1017.6 28.3
2017-Aug-13 13:00N 39°36' E 012°30'2322.7 1017.9 28.7
2017-Aug-13 12:00N 39°54' E 012°12'2020.2 1017.9 29.0
2017-Aug-13 11:00N 40°12' E 012°00'2625.7 1018.1 28.6
2017-Aug-13 10:00N 40°36' E 011°48'2020.2 1018.3 27.5
2017-Aug-13 09:00N 40°54' E 011°36'2322.5 1017.7 25.0
2017-Aug-13 08:00N 41°12' E 011°18'2625.6 1017.2 24.3
2017-Aug-13 07:00N 41°36' E 011°06'2020.1 1017.5 24.3
2017-Aug-13 06:00N 41°54' E 010°54'2222.4 1017.4 24.1
2017-Aug-13 05:00N 42°12' E 010°36'2020.1 1016.8 23.4
2017-Aug-13 04:00N 42°30' E 010°24'2525.2 1016.9 23.6
2017-Aug-13 03:00N 42°48' E 010°00'2424.4 1017.1 23.6
2017-Aug-13 02:00N 43°12' E 009°54'2020.0 1016.8 23.1
2017-Aug-13 01:00N 43°30' E 009°42'2222.2 1016.5 22.8
2017-Aug-13 00:00N 43°48' E 009°24'2222.2 1016.8 22.9
2017-Aug-12 23:00N 44°06' E 009°06'20 4.0 1016.8 23.9
2017-Aug-12 18:00N 44°24' E 008°54'7 7.4 1015.7 26.0
2017-Aug-12 17:00N 44°18' E 009°00'2222.2 1014.4 24.9
2017-Aug-12 16:00N 44°00' E 009°18'2020.0 1014.1 24.0
2017-Aug-12 15:00N 43°42' E 009°30'2727.3 1014.6 23.8
2017-Aug-12 14:00N 43°18' E 009°48'2020.0 1014.9 24.6
2017-Aug-12 13:00N 43°00' E 010°00'1918.5 1015.1 24.5
2017-Aug-12 12:00N 42°42' E 010°06'1817.9 1014.4 24.8
2017-Aug-12 11:00N 42°30' E 010°24'2525.3 1015.7 23.3
2017-Aug-12 10:00N 42°12' E 010°48'2020.1 1015.6 21.5
2017-Aug-12 09:00N 41°54' E 011°00'2222.5 1013.7 24.4
2017-Aug-12 08:00N 41°36' E 011°18'2424.4 1013.6 22.8
2017-Aug-12 07:00N 41°12' E 011°24'2020.1 1012.3 22.3
2017-Aug-12 06:00N 40°54' E 011°36'2020.2 1012.3 23.0
2017-Aug-12 05:00N 40°36' E 011°48'2020.2 1013.2 23.1
2017-Aug-12 04:00N 40°18' E 012°00'2020.2 1014.2 23.1
2017-Aug-12 03:00N 40°00' E 012°12'2625.7 1014.8 23.7
2017-Aug-12 02:00N 39°36' E 012°24'2020.2 1015.1 25.0
2017-Aug-12 01:00N 39°18' E 012°36'4120.3 1015.7 25.3
2017-Aug-11 23:00N 38°42' E 013°00'2322.9 1016.9 25.7
2017-Aug-11 22:00N 38°24' E 013°18'19 3.7 1017.2 25.8
2017-Aug-11 17:00N 38°06' E 013°24'1312.9 1017.2 27.1
2017-Aug-11 16:00N 38°18' E 013°18'2322.9 1017.1 27.6
2017-Aug-11 15:00N 38°36' E 013°00'1818.5 1017.4 27.4
2017-Aug-11 14:00N 38°48' E 012°42'2322.8 1017.8 28.3
2017-Aug-11 13:00N 39°06' E 012°24'2322.8 1018.1 29.2
2017-Aug-11 12:00N 39°24' E 012°06'2322.7 1018.4 29.5
2017-Aug-11 11:00N 39°42' E 011°48'2625.8 1018.3 27.8
2017-Aug-11 10:00N 40°00' E 011°24'2322.7 1018.0 25.4
2017-Aug-11 09:00N 40°18' E 011°06'2322.6 1017.3 24.3
2017-Aug-11 08:00N 40°36' E 010°48'1818.2 1016.7 23.5
2017-Aug-11 07:00N 40°48' E 010°30'2322.6 1015.9 23.2
2017-Aug-11 06:00N 41°06' E 010°12'2625.6 1014.9 22.7
2017-Aug-11 05:00N 41°30' E 010°00'1818.0 1011.4 22.4
2017-Aug-11 04:00N 41°48' E 010°00'2424.0 1012.0 24.3
2017-Aug-11 03:00N 42°12' E 010°00'2424.4 1011.3 24.6
2017-Aug-11 02:00N 42°36' E 009°54'1918.5 1011.2 24.2
2017-Aug-11 01:00N 42°54' E 010°00'2424.4 1010.5 24.2
2017-Aug-11 00:00N 43°18' E 009°54'2020.0 1010.1 23.4
2017-Aug-10 23:00N 43°36' E 009°42'2020.0 1011.5 23.6
2017-Aug-10 22:00N 43°54' E 009°30'2524.9 1011.2 23.6
2017-Aug-10 21:00N 44°12' E 009°06'7 1.2 1011.1 24.0
2017-Aug-10 15:00N 44°18' E 009°00'2222.2 1011.8 25.8
2017-Aug-10 14:00N 44°00' E 009°18'2020.0 1011.1 25.4
2017-Aug-10 13:00N 43°42' E 009°30'2222.2 1011.1 26.0
2017-Aug-10 12:00N 43°24' E 009°48'2020.0 1011.3 26.2
2017-Aug-10 11:00N 43°06' E 010°00'2424.4 1012.3 25.8
2017-Aug-10 10:00N 42°42' E 010°06'1817.9 1013.6 26.7
2017-Aug-10 09:00N 42°30' E 010°24'2222.4 1012.7 28.3
2017-Aug-10 08:00N 42°12' E 010°42'2625.6 1012.5 27.4
2017-Aug-10 07:00N 41°48' E 010°54'2222.5 1012.6 27.3
2017-Aug-10 06:00N 41°30' E 011°12'2020.1 1012.9 27.5
2017-Aug-10 05:00N 41°12' E 011°24'2625.7 1012.5 27.0
2017-Aug-10 04:00N 40°48' E 011°36'2020.2 1012.3 27.1
2017-Aug-10 03:00N 40°30' E 011°48'2322.6 1012.8 27.6
2017-Aug-10 02:00N 40°12' E 012°06'2625.7 1013.1 27.8
2017-Aug-10 01:00N 39°48' E 012°18'2020.2 1013.4 29.0
2017-Aug-10 00:00N 39°30' E 012°30'2020.3 1014.2 28.0
2017-Aug-09 23:00N 39°12' E 012°42'2020.3 1014.1 29.1
2017-Aug-09 22:00N 38°54' E 012°54'2827.8 1014.7 29.5
2017-Aug-09 21:00N 38°30' E 013°12'2020.3 1014.3 28.7
2017-Aug-09 20:00N 38°12' E 013°24'6 2.0 1014.2 29.2
2017-Aug-09 17:00N 38°06' E 013°24'6 3.0 1013.5 32.0
2017-Aug-09 15:00N 38°12' E 013°24'2322.9 1013.2 30.9
2017-Aug-09 14:00N 38°30' E 013°06'2625.8 1013.1 31.8
2017-Aug-09 13:00N 38°54' E 012°54'2020.3 1013.3 32.2
2017-Aug-09 12:00N 39°12' E 012°42'2020.3 1013.4 32.0
2017-Aug-09 11:00N 39°30' E 012°30'2625.7 1013.5 31.2
2017-Aug-09 10:00N 39°54' E 012°18'2322.7 1013.4 30.2
2017-Aug-09 09:00N 40°12' E 012°00'2020.2 1013.1 29.8
2017-Aug-09 08:00N 40°30' E 011°48'2020.2 1012.8 29.7
2017-Aug-09 07:00N 40°48' E 011°36'2625.7 1012.5 28.4
2017-Aug-09 06:00N 41°12' E 011°24'2020.1 1012.3 28.0
2017-Aug-09 05:00N 41°30' E 011°12'2222.5 1011.6 27.1
2017-Aug-09 04:00N 41°48' E 010°54'2625.6 1011.2 27.2
2017-Aug-09 03:00N 42°12' E 010°42'2222.4 1010.8 27.5
2017-Aug-09 02:00N 42°30' E 010°24'1817.9 1010.6 27.6
2017-Aug-09 01:00N 42°42' E 010°06'2424.4 1011.2 27.8
2017-Aug-09 00:00N 43°06' E 010°00'2020.0 1011.5 27.2
2017-Aug-08 23:00N 43°24' E 009°48'   1011.1 27.2
Track history (hours):
 
Tides and Currents Weather Stations Pressure Air Temp Water Temp Dewpoint Dewpoint Depression Visibility Wind Speed Wind Dir Waves Ship Positions

Callsign BAREU51 (name unknown)

Last reported at 2017-Aug-18 23:00 UTC. Time now 2017-Aug-18 23:48 UTC.
Position N 39°12' E 012°42'.

Barometer 1015.6 mb
Air temperature 26.4 ° C

Date/timePositionNaut miles runAvg speedWind from/ knotsBaromVisibWave heightAir tempDewpointWater temp
2017-Aug-18 23:00N 39°12' E 012°42'2020.3 1015.6 26.4
2017-Aug-18 22:00N 38°54' E 012°54'2020.3 1015.9 27.1
2017-Aug-18 21:00N 38°36' E 013°06'2827.8 1016.1 27.1
2017-Aug-18 20:00N 38°12' E 013°24'6 1.2 1016.2 27.0
2017-Aug-18 15:00N 38°06' E 013°24'1918.6 1016.0 30.1
2017-Aug-18 14:00N 38°24' E 013°18'2322.9 1015.9 29.4
2017-Aug-18 13:00N 38°42' E 013°00'2625.8 1016.6 29.4
2017-Aug-18 12:00N 39°06' E 012°48'2020.3 1017.0 28.9
2017-Aug-18 11:00N 39°24' E 012°36'2827.7 1017.3 28.5
2017-Aug-18 10:00N 39°48' E 012°18'2020.2 1017.6 28.4
2017-Aug-18 09:00N 40°06' E 012°06'2020.2 1017.7 27.5
2017-Aug-18 08:00N 40°24' E 011°54'2625.7 1017.6 26.7
2017-Aug-18 07:00N 40°48' E 011°42'2322.6 1017.0 26.2
2017-Aug-18 06:00N 41°06' E 011°24'2020.1 1016.4 25.8
2017-Aug-18 05:00N 41°24' E 011°12'2625.6 1016.0 24.7
2017-Aug-18 04:00N 41°48' E 011°00'2222.4 1015.7 24.6
2017-Aug-18 03:00N 42°06' E 010°42'2020.1 1015.6 25.5
2017-Aug-18 02:00N 42°24' E 010°30'2525.2 1015.6 25.1
2017-Aug-18 01:00N 42°42' E 010°06'1918.5 1015.6 26.1
2017-Aug-18 00:00N 43°00' E 010°00'2625.5 1016.6 24.6
2017-Aug-17 23:00N 43°24' E 009°48'2222.2 1016.6 24.6
2017-Aug-17 22:00N 43°42' E 009°30'2222.2 1016.5 24.5
2017-Aug-17 21:00N 44°00' E 009°12'2020.0 1016.4 25.6
2017-Aug-17 20:00N 44°18' E 009°00'6 1.2 1016.3 27.0
2017-Aug-17 15:00N 44°24' E 009°00'2019.9 1016.2 28.4
2017-Aug-17 14:00N 44°06' E 009°12'2727.3 1016.4 27.1
2017-Aug-17 13:00N 43°42' E 009°30'2020.0 1016.4 27.1
2017-Aug-17 12:00N 43°24' E 009°42'2222.3 1016.6 26.3
2017-Aug-17 11:00N 43°06' E 010°00'2424.0 1016.5 26.3
2017-Aug-17 10:00N 42°42' E 010°00'2121.4 1016.3 26.2
2017-Aug-17 09:00N 42°30' E 010°24'2222.4 1016.5 27.7
2017-Aug-17 08:00N 42°12' E 010°42'2625.6 1016.3 26.8
2017-Aug-17 07:00N 41°48' E 010°54'2222.5 1015.7 25.7
2017-Aug-17 06:00N 41°30' E 011°12'2020.1 1015.1 25.4
2017-Aug-17 05:00N 41°12' E 011°24'2625.7 1015.0 26.2
2017-Aug-17 04:00N 40°48' E 011°36'2020.2 1014.7 25.8
2017-Aug-17 03:00N 40°30' E 011°48'2020.2 1015.0 25.4
2017-Aug-17 02:00N 40°12' E 012°00'2827.7 1015.5 25.6
2017-Aug-17 01:00N 39°48' E 012°18'2020.2 1015.9 26.5
2017-Aug-17 00:00N 39°30' E 012°30'2020.3 1016.0 26.3
2017-Aug-16 23:00N 39°12' E 012°42'2625.7 1016.4 26.4
2017-Aug-16 22:00N 38°48' E 012°54'2322.8 1016.6 26.8
2017-Aug-16 21:00N 38°30' E 013°12'2020.3 1016.6 27.0
2017-Aug-16 20:00N 38°12' E 013°24'6 6.0 1016.9 26.8
2017-Aug-16 19:00N 38°06' E 013°24'0 0.0 1017.3 26.8
2017-Aug-16 00:00N 38°06' E 013°24'0 0.0 1018.2 24.4
2017-Aug-15 20:00N 38°06' E 013°24'0 0.0 1019.1 25.7
2017-Aug-15 15:00N 38°06' E 013°24'2020.3 1019.1 29.4
2017-Aug-15 14:00N 38°24' E 013°12'2625.8 1019.2 28.7
2017-Aug-15 13:00N 38°48' E 013°00'2322.8 1019.9 28.9
2017-Aug-15 12:00N 39°06' E 012°42'2625.7 1020.4 28.4
2017-Aug-15 11:00N 39°30' E 012°30'2020.2 1020.8 28.4
2017-Aug-15 10:00N 39°48' E 012°18'2020.2 1020.6 27.3
2017-Aug-15 09:00N 40°06' E 012°06'2827.6 1020.4 26.9
2017-Aug-15 08:00N 40°30' E 011°48'2020.2 1020.7 26.4
2017-Aug-15 07:00N 40°48' E 011°36'2625.7 1020.4 26.1
2017-Aug-15 06:00N 41°12' E 011°24'2020.1 1020.5 24.8
2017-Aug-15 05:00N 41°30' E 011°12'2222.5 1019.6 22.7
2017-Aug-15 04:00N 41°48' E 010°54'2625.6 1019.3 23.5
2017-Aug-15 03:00N 42°12' E 010°42'2222.4 1019.2 25.3
2017-Aug-15 02:00N 42°30' E 010°24'2121.4 1019.3 25.3
2017-Aug-15 01:00N 42°42' E 010°00'2424.0 1019.7 23.8
2017-Aug-15 00:00N 43°06' E 010°00'2222.3 1019.6 23.8
2017-Aug-14 23:00N 43°24' E 009°42'2727.3 1019.6 23.8
2017-Aug-14 22:00N 43°48' E 009°24'2020.0 1019.7 23.4
2017-Aug-14 21:00N 44°06' E 009°12'2222.1 1019.8 24.1
2017-Aug-14 20:00N 44°24' E 008°54'0 0.0 1019.9 25.0
2017-Aug-14 17:00N 44°24' E 008°54'1010.5 1019.3 27.5
2017-Aug-14 16:00N 44°18' E 009°06'2625.5 1018.6 25.6
2017-Aug-14 15:00N 43°54' E 009°18'2222.2 1018.8 26.2
2017-Aug-14 14:00N 43°36' E 009°36'2222.2 1019.1 25.9
2017-Aug-14 13:00N 43°18' E 009°54'1918.5 1019.0 26.0
2017-Aug-14 12:00N 43°00' E 010°00'2625.6 1018.9 26.6
2017-Aug-14 11:00N 42°36' E 010°12'1817.9 1019.4 27.2
2017-Aug-14 10:00N 42°24' E 010°30'2727.5 1019.4 26.9
2017-Aug-14 09:00N 42°00' E 010°48'2020.1 1019.3 26.4
2017-Aug-14 08:00N 41°42' E 011°00'2020.1 1018.4 24.9
2017-Aug-14 07:00N 41°24' E 011°12'2827.6 1017.8 25.1
2017-Aug-14 06:00N 41°00' E 011°30'2020.2 1017.2 25.0
2017-Aug-14 05:00N 40°42' E 011°42'2020.2 1016.7 24.7
2017-Aug-14 04:00N 40°24' E 011°54'2625.7 1016.7 24.9
2017-Aug-14 03:00N 40°00' E 012°06'2322.7 1016.9 25.3
2017-Aug-14 02:00N 39°42' E 012°24'2020.2 1017.0 25.3
2017-Aug-14 01:00N 39°24' E 012°36'2625.7 1017.0 25.5
2017-Aug-14 00:00N 39°00' E 012°48'2020.3 1017.0 25.6
2017-Aug-13 23:00N 38°42' E 013°00'2322.9 1017.1 25.1
2017-Aug-13 22:00N 38°24' E 013°18'19 9.3 1017.6 25.2
2017-Aug-13 20:00N 38°06' E 013°24'6 2.0 1017.9 25.5
2017-Aug-13 17:00N 38°12' E 013°24'2827.8 1016.9 26.9
2017-Aug-13 16:00N 38°36' E 013°06'2020.3 1017.1 27.9
2017-Aug-13 15:00N 38°54' E 012°54'2020.3 1017.5 28.9
2017-Aug-13 14:00N 39°12' E 012°42'2625.7 1017.6 28.3
2017-Aug-13 13:00N 39°36' E 012°30'2322.7 1017.9 28.7
2017-Aug-13 12:00N 39°54' E 012°12'2020.2 1017.9 29.0
2017-Aug-13 11:00N 40°12' E 012°00'2625.7 1018.1 28.6
2017-Aug-13 10:00N 40°36' E 011°48'2020.2 1018.3 27.5
2017-Aug-13 09:00N 40°54' E 011°36'2322.5 1017.7 25.0
2017-Aug-13 08:00N 41°12' E 011°18'2625.6 1017.2 24.3
2017-Aug-13 07:00N 41°36' E 011°06'2020.1 1017.5 24.3
2017-Aug-13 06:00N 41°54' E 010°54'2222.4 1017.4 24.1
2017-Aug-13 05:00N 42°12' E 010°36'2020.1 1016.8 23.4
2017-Aug-13 04:00N 42°30' E 010°24'2525.2 1016.9 23.6
2017-Aug-13 03:00N 42°48' E 010°00'2424.4 1017.1 23.6
2017-Aug-13 02:00N 43°12' E 009°54'2020.0 1016.8 23.1
2017-Aug-13 01:00N 43°30' E 009°42'2222.2 1016.5 22.8
2017-Aug-13 00:00N 43°48' E 009°24'2222.2 1016.8 22.9
2017-Aug-12 23:00N 44°06' E 009°06'20 4.0 1016.8 23.9
2017-Aug-12 18:00N 44°24' E 008°54'7 7.4 1015.7 26.0
2017-Aug-12 17:00N 44°18' E 009°00'2222.2 1014.4 24.9
2017-Aug-12 16:00N 44°00' E 009°18'2020.0 1014.1 24.0
2017-Aug-12 15:00N 43°42' E 009°30'2727.3 1014.6 23.8
2017-Aug-12 14:00N 43°18' E 009°48'2020.0 1014.9 24.6
2017-Aug-12 13:00N 43°00' E 010°00'1918.5 1015.1 24.5
2017-Aug-12 12:00N 42°42' E 010°06'1817.9 1014.4 24.8
2017-Aug-12 11:00N 42°30' E 010°24'2525.3 1015.7 23.3
2017-Aug-12 10:00N 42°12' E 010°48'2020.1 1015.6 21.5
2017-Aug-12 09:00N 41°54' E 011°00'2222.5 1013.7 24.4
2017-Aug-12 08:00N 41°36' E 011°18'2424.4 1013.6 22.8
2017-Aug-12 07:00N 41°12' E 011°24'2020.1 1012.3 22.3
2017-Aug-12 06:00N 40°54' E 011°36'2020.2 1012.3 23.0
2017-Aug-12 05:00N 40°36' E 011°48'2020.2 1013.2 23.1
2017-Aug-12 04:00N 40°18' E 012°00'2020.2 1014.2 23.1
2017-Aug-12 03:00N 40°00' E 012°12'2625.7 1014.8 23.7
2017-Aug-12 02:00N 39°36' E 012°24'2020.2 1015.1 25.0
2017-Aug-12 01:00N 39°18' E 012°36'4120.3 1015.7 25.3
2017-Aug-11 23:00N 38°42' E 013°00'2322.9 1016.9 25.7
2017-Aug-11 22:00N 38°24' E 013°18'19 3.7 1017.2 25.8
2017-Aug-11 17:00N 38°06' E 013°24'1312.9 1017.2 27.1
2017-Aug-11 16:00N 38°18' E 013°18'2322.9 1017.1 27.6
2017-Aug-11 15:00N 38°36' E 013°00'1818.5 1017.4 27.4
2017-Aug-11 14:00N 38°48' E 012°42'2322.8 1017.8 28.3
2017-Aug-11 13:00N 39°06' E 012°24'2322.8 1018.1 29.2
2017-Aug-11 12:00N 39°24' E 012°06'2322.7 1018.4 29.5
2017-Aug-11 11:00N 39°42' E 011°48'2625.8 1018.3 27.8
2017-Aug-11 10:00N 40°00' E 011°24'2322.7 1018.0 25.4
2017-Aug-11 09:00N 40°18' E 011°06'2322.6 1017.3 24.3
2017-Aug-11 08:00N 40°36' E 010°48'1818.2 1016.7 23.5
2017-Aug-11 07:00N 40°48' E 010°30'2322.6 1015.9 23.2
2017-Aug-11 06:00N 41°06' E 010°12'2625.6 1014.9 22.7
2017-Aug-11 05:00N 41°30' E 010°00'1818.0 1011.4 22.4
2017-Aug-11 04:00N 41°48' E 010°00'2424.0 1012.0 24.3
2017-Aug-11 03:00N 42°12' E 010°00'2424.4 1011.3 24.6
2017-Aug-11 02:00N 42°36' E 009°54'1918.5 1011.2 24.2
2017-Aug-11 01:00N 42°54' E 010°00'2424.4 1010.5 24.2
2017-Aug-11 00:00N 43°18' E 009°54'2020.0 1010.1 23.4
2017-Aug-10 23:00N 43°36' E 009°42'2020.0 1011.5 23.6
2017-Aug-10 22:00N 43°54' E 009°30'2524.9 1011.2 23.6
2017-Aug-10 21:00N 44°12' E 009°06'7 1.2 1011.1 24.0
2017-Aug-10 15:00N 44°18' E 009°00'2222.2 1011.8 25.8
2017-Aug-10 14:00N 44°00' E 009°18'2020.0 1011.1 25.4
2017-Aug-10 13:00N 43°42' E 009°30'2222.2 1011.1 26.0
2017-Aug-10 12:00N 43°24' E 009°48'2020.0 1011.3 26.2
2017-Aug-10 11:00N 43°06' E 010°00'2424.4 1012.3 25.8
2017-Aug-10 10:00N 42°42' E 010°06'1817.9 1013.6 26.7
2017-Aug-10 09:00N 42°30' E 010°24'2222.4 1012.7 28.3
2017-Aug-10 08:00N 42°12' E 010°42'2625.6 1012.5 27.4
2017-Aug-10 07:00N 41°48' E 010°54'2222.5 1012.6 27.3
2017-Aug-10 06:00N 41°30' E 011°12'2020.1 1012.9 27.5
2017-Aug-10 05:00N 41°12' E 011°24'2625.7 1012.5 27.0
2017-Aug-10 04:00N 40°48' E 011°36'2020.2 1012.3 27.1
2017-Aug-10 03:00N 40°30' E 011°48'2322.6 1012.8 27.6
2017-Aug-10 02:00N 40°12' E 012°06'2625.7 1013.1 27.8
2017-Aug-10 01:00N 39°48' E 012°18'2020.2 1013.4 29.0
2017-Aug-10 00:00N 39°30' E 012°30'2020.3 1014.2 28.0
2017-Aug-09 23:00N 39°12' E 012°42'2020.3 1014.1 29.1
2017-Aug-09 22:00N 38°54' E 012°54'2827.8 1014.7 29.5
2017-Aug-09 21:00N 38°30' E 013°12'2020.3 1014.3 28.7
2017-Aug-09 20:00N 38°12' E 013°24'6 2.0 1014.2 29.2
2017-Aug-09 17:00N 38°06' E 013°24'6 3.0 1013.5 32.0
2017-Aug-09 15:00N 38°12' E 013°24'2322.9 1013.2 30.9
2017-Aug-09 14:00N 38°30' E 013°06'2625.8 1013.1 31.8
2017-Aug-09 13:00N 38°54' E 012°54'2020.3 1013.3 32.2
2017-Aug-09 12:00N 39°12' E 012°42'2020.3 1013.4 32.0
2017-Aug-09 11:00N 39°30' E 012°30'2625.7 1013.5 31.2
2017-Aug-09 10:00N 39°54' E 012°18'2322.7 1013.4 30.2
2017-Aug-09 09:00N 40°12' E 012°00'2020.2 1013.1 29.8
2017-Aug-09 08:00N 40°30' E 011°48'2020.2 1012.8 29.7
2017-Aug-09 07:00N 40°48' E 011°36'2625.7 1012.5 28.4
2017-Aug-09 06:00N 41°12' E 011°24'2020.1 1012.3 28.0
2017-Aug-09 05:00N 41°30' E 011°12'2222.5 1011.6 27.1
2017-Aug-09 04:00N 41°48' E 010°54'2625.6 1011.2 27.2
2017-Aug-09 03:00N 42°12' E 010°42'2222.4 1010.8 27.5
2017-Aug-09 02:00N 42°30' E 010°24'1817.9 1010.6 27.6
2017-Aug-09 01:00N 42°42' E 010°06'2424.4 1011.2 27.8
2017-Aug-09 00:00N 43°06' E 010°00'2020.0 1011.5 27.2
2017-Aug-08 23:00N 43°24' E 009°48'   1011.1 27.2

Dump ship's entire track history